La rose des vents
Donnes mto: Semaine 23/07/07 - 29/07/07 (S 30)
Date Horaire Temp. E. Hum. E. P.atmo. Pluie Vent 1mn Direction Ensoleilleme Ev.Tr. Solaire P. de rose Temp au vent Rafales
23/07/2007 00:00 23,1 C 46 % 1008,6 hPa 0,0 l/m 0,4 km/h (0 Bft) N 0,00 h 0,127 mm 0 W/m 11,0 C 23,1 C 1,3 km/h (1 Bft)
23/07/2007 01:00 22,3 C 49 % 1008,3 hPa 0,0 l/m 0,3 km/h (0 Bft) N 0,00 h 0,051 mm 0 W/m 11,2 C 22,3 C 1,3 km/h (1 Bft)
23/07/2007 02:00 21,4 C 52 % 1008,2 hPa 0,0 l/m 1,3 km/h (1 Bft) S-SE 0,00 h 0,051 mm 0 W/m 11,1 C 21,4 C 2,5 km/h (1 Bft)
23/07/2007 03:00 20,3 C 53 % 1008,0 hPa 0,0 l/m 3,2 km/h (1 Bft) NO 0,00 h 0,051 mm 0 W/m 10,3 C 20,3 C 5,3 km/h (1 Bft)
23/07/2007 04:00 20,5 C 50 % 1007,7 hPa 0,0 l/m 1,4 km/h (1 Bft) NO 0,00 h 0,076 mm 0 W/m 9,7 C 20,5 C 2,5 km/h (1 Bft)
23/07/2007 05:00 19,5 C 56 % 1008,1 hPa 0,0 l/m 1,1 km/h (1 Bft) NO 0,00 h 0,051 mm 0 W/m 10,6 C 19,5 C 2,8 km/h (1 Bft)
23/07/2007 06:00 19,3 C 68 % 1008,2 hPa 0,0 l/m 0,2 km/h (0 Bft) NO 0,02 h 0,025 mm 16 W/m 13,1 C 19,3 C 1,4 km/h (1 Bft)
23/07/2007 07:00 20,3 C 70 % 1008,5 hPa 0,0 l/m 0,4 km/h (0 Bft) O-NO 0,00 h 0,025 mm 70 W/m 14,7 C 20,3 C 1,0 km/h (0 Bft)
23/07/2007 08:00 22,2 C 69 % 1008,5 hPa 0,0 l/m 0,7 km/h (0 Bft) SE 0,12 h 0,051 mm 187 W/m 16,1 C 22,2 C 1,9 km/h (1 Bft)
23/07/2007 09:00 24,0 C 62 % 1008,2 hPa 0,0 l/m 3,7 km/h (1 Bft) E 0,83 h 0,127 mm 413 W/m 16,2 C 24,0 C 6,4 km/h (2 Bft)
23/07/2007 10:00 26,0 C 55 % 1007,9 hPa 0,0 l/m 6,1 km/h (2 Bft) E 1,00 h 0,279 mm 614 W/m 16,1 C 26,0 C 9,9 km/h (2 Bft)
23/07/2007 11:00 26,6 C 60 % 1007,5 hPa 0,0 l/m 11,4 km/h (2 Bft) E 1,00 h 0,432 mm 736 W/m 18,1 C 26,6 C 16,4 km/h (3 Bft)
23/07/2007 12:00 27,3 C 60 % 1007,8 hPa 0,0 l/m 11,4 km/h (2 Bft) E 1,00 h 0,533 mm 854 W/m 18,9 C 27,3 C 17,1 km/h (3 Bft)
23/07/2007 13:00 27,8 C 55 % 1007,8 hPa 0,0 l/m 9,3 km/h (2 Bft) E 1,00 h 0,635 mm 751 W/m 18,0 C 27,8 C 15,1 km/h (3 Bft)
23/07/2007 14:00 28,0 C 50 % 1007,5 hPa 0,0 l/m 10,5 km/h (2 Bft) S 1,00 h 0,559 mm 824 W/m 16,7 C 28,0 C 16,7 km/h (3 Bft)
23/07/2007 15:00 28,9 C 45 % 1007,2 hPa 0,0 l/m 10,7 km/h (2 Bft) S 1,00 h 0,635 mm 763 W/m 15,7 C 28,9 C 16,6 km/h (3 Bft)
23/07/2007 16:00 29,0 C 52 % 1006,6 hPa 0,0 l/m 9,1 km/h (2 Bft) E 0,92 h 0,610 mm 655 W/m 18,0 C 29,0 C 15,7 km/h (3 Bft)
23/07/2007 17:00 26,4 C 63 % 1006,2 hPa 0,0 l/m 9,5 km/h (2 Bft) E 0,68 h 0,508 mm 428 W/m 18,8 C 26,4 C 14,5 km/h (3 Bft)
23/07/2007 18:00 26,3 C 64 % 1005,8 hPa 0,0 l/m 5,2 km/h (1 Bft) E 1,00 h 0,330 mm 337 W/m 18,8 C 26,3 C 8,3 km/h (2 Bft)
23/07/2007 19:00 23,8 C 72 % 1005,8 hPa 0,0 l/m 4,0 km/h (1 Bft) S-SE 0,25 h 0,254 mm 98 W/m 18,4 C 23,8 C 7,5 km/h (2 Bft)
23/07/2007 20:00 22,5 C 76 % 1005,7 hPa 0,0 l/m 4,6 km/h (1 Bft) S-SE 0,00 h 0,076 mm 22 W/m 18,0 C 22,5 C 7,2 km/h (2 Bft)
23/07/2007 21:00 22,0 C 76 % 1005,6 hPa 0,0 l/m 5,0 km/h (1 Bft) S 0,00 h 0,025 mm 0 W/m 17,5 C 22,0 C 7,1 km/h (2 Bft)
23/07/2007 22:00 21,3 C 78 % 1005,8 hPa 0,0 l/m 5,5 km/h (1 Bft) SO 0,00 h 0,025 mm 0 W/m 17,3 C 21,3 C 7,5 km/h (2 Bft)
23/07/2007 23:00 20,3 C 81 % 1005,4 hPa 0,0 l/m 1,7 km/h (1 Bft) O-SO 0,00 h 0,051 mm 0 W/m 16,9 C 20,3 C 2,9 km/h (1 Bft)
24/07/2007 00:00 19,9 C 81 % 1005,5 hPa 0,0 l/m 6,1 km/h (2 Bft) O-SO 0,00 h 0,025 mm 0 W/m 16,5 C 19,9 C 8,1 km/h (2 Bft)
24/07/2007 01:00 20,1 C 80 % 1005,3 hPa 0,0 l/m 11,3 km/h (2 Bft) O-SO 0,00 h 0,025 mm 0 W/m 16,4 C 20,1 C 15,4 km/h (3 Bft)
24/07/2007 02:00 19,6 C 80 % 1004,9 hPa 0,0 l/m 7,4 km/h (2 Bft) O-NO 0,00 h 0,051 mm 0 W/m 16,0 C 19,6 C 10,2 km/h (2 Bft)
24/07/2007 03:00 19,4 C 78 % 1004,7 hPa 0,0 l/m 2,3 km/h (1 Bft) O-NO 0,00 h 0,051 mm 0 W/m 15,5 C 19,4 C 3,5 km/h (1 Bft)
24/07/2007 04:00 19,2 C 80 % 1004,6 hPa 0,0 l/m 0,9 km/h (0 Bft) O-NO 0,00 h 0,025 mm 0 W/m 15,7 C 19,2 C 1,5 km/h (1 Bft)
24/07/2007 05:00 19,3 C 80 % 1004,7 hPa 0,0 l/m 5,7 km/h (1 Bft) O-SO 0,00 h 0,025 mm 0 W/m 15,7 C 19,3 C 7,4 km/h (2 Bft)
24/07/2007 06:00 19,1 C 80 % 1004,8 hPa 0,0 l/m 7,3 km/h (2 Bft) O-SO 0,00 h 0,025 mm 15 W/m 15,6 C 19,1 C 10,1 km/h (2 Bft)
24/07/2007 07:00 19,8 C 78 % 1004,8 hPa 0,0 l/m 1,9 km/h (1 Bft) O 0,00 h 0,025 mm 63 W/m 15,9 C 19,8 C 3,3 km/h (1 Bft)
24/07/2007 08:00 21,1 C 74 % 1005,0 hPa 0,0 l/m 2,4 km/h (1 Bft) SO 0,00 h 0,051 mm 115 W/m 16,3 C 21,1 C 3,9 km/h (1 Bft)
24/07/2007 09:00 23,6 C 65 % 1005,1 hPa 0,0 l/m 4,3 km/h (1 Bft) SO 0,37 h 0,102 mm 307 W/m 16,6 C 23,6 C 6,8 km/h (2 Bft)
24/07/2007 10:00 27,6 C 45 % 1004,9 hPa 0,0 l/m 11,5 km/h (2 Bft) SO 0,95 h 0,229 mm 603 W/m 14,1 C 27,6 C 17,0 km/h (3 Bft)
24/07/2007 11:00 30,6 C 25 % 1004,4 hPa 0,0 l/m 23,1 km/h (4 Bft) O 1,00 h 0,508 mm 760 W/m 8,5 C 30,6 C 32,9 km/h (5 Bft)
24/07/2007 12:00 30,9 C 23 % 1004,3 hPa 0,0 l/m 23,6 km/h (4 Bft) O-NO 1,00 h 0,813 mm 839 W/m 7,3 C 30,9 C 33,7 km/h (5 Bft)
24/07/2007 13:00 31,5 C 20 % 1003,9 hPa 0,0 l/m 29,5 km/h (5 Bft) O-SO 1,00 h 0,889 mm 882 W/m 6,1 C 31,5 C 41,7 km/h (6 Bft)
24/07/2007 14:00 31,8 C 21 % 1003,9 hPa 0,0 l/m 29,8 km/h (5 Bft) O-SO 1,00 h 1,016 mm 864 W/m 6,7 C 31,8 C 41,1 km/h (6 Bft)
24/07/2007 15:00 32,5 C 20 % 1003,7 hPa 0,0 l/m 28,3 km/h (4 Bft) O-SO 1,00 h 1,016 mm 797 W/m 6,7 C 32,5 C 39,0 km/h (6 Bft)
24/07/2007 16:00 32,6 C 20 % 1003,2 hPa 0,0 l/m 33,0 km/h (5 Bft) O-SO 1,00 h 0,965 mm 682 W/m 6,4 C 32,6 C 43,9 km/h (6 Bft)
24/07/2007 17:00 33,0 C 20 % 1003,1 hPa 0,0 l/m 27,7 km/h (4 Bft) O-SO 1,00 h 0,940 mm 539 W/m 6,6 C 33,0 C 37,1 km/h (5 Bft)
24/07/2007 18:00 32,3 C 21 % 1003,0 hPa 0,0 l/m 23,0 km/h (4 Bft) O-SO 1,00 h 0,762 mm 371 W/m 7,1 C 32,3 C 31,9 km/h (5 Bft)
24/07/2007 19:00 31,5 C 24 % 1003,0 hPa 0,0 l/m 18,1 km/h (3 Bft) O-SO 1,00 h 0,584 mm 197 W/m 8,6 C 31,5 C 25,1 km/h (4 Bft)
24/07/2007 20:00 28,9 C 27 % 1003,8 hPa 0,0 l/m 20,9 km/h (4 Bft) O-SO 0,12 h 0,381 mm 25 W/m 8,3 C 28,9 C 27,1 km/h (4 Bft)
24/07/2007 21:00 26,1 C 43 % 1004,8 hPa 0,0 l/m 7,0 km/h (2 Bft) E 0,00 h 0,279 mm 5 W/m 11,5 C 26,1 C 11,7 km/h (2 Bft)
24/07/2007 22:00 22,7 C 69 % 1006,3 hPa 0,0 l/m 5,3 km/h (1 Bft) S-SO 0,00 h 0,076 mm 0 W/m 16,8 C 22,7 C 7,4 km/h (2 Bft)
24/07/2007 23:00 21,8 C 78 % 1007,2 hPa 0,0 l/m 9,0 km/h (2 Bft) O-SO 0,00 h 0,051 mm 0 W/m 17,8 C 21,8 C 12,0 km/h (2 Bft)
25/07/2007 00:00 21,1 C 84 % 1007,9 hPa 0,0 l/m 12,7 km/h (3 Bft) SO 0,00 h 0,051 mm 0 W/m 18,3 C 21,1 C 16,7 km/h (3 Bft)
25/07/2007 01:00 20,9 C 83 % 1008,3 hPa 0,0 l/m 15,2 km/h (3 Bft) O-SO 0,00 h 0,051 mm 0 W/m 17,9 C 20,9 C 19,3 km/h (3 Bft)
25/07/2007 02:00 20,6 C 85 % 1008,7 hPa 0,0 l/m 14,2 km/h (3 Bft) O-SO 0,00 h 0,051 mm 0 W/m 18,0 C 20,6 C 18,6 km/h (3 Bft)
25/07/2007 03:00 20,1 C 75 % 1008,9 hPa 0,0 l/m 8,3 km/h (2 Bft) O 0,00 h 0,051 mm 0 W/m 15,5 C 20,1 C 11,6 km/h (2 Bft)
25/07/2007 04:00 20,2 C 67 % 1009,2 hPa 0,0 l/m 7,5 km/h (2 Bft) O-SO 0,00 h 0,051 mm 0 W/m 13,7 C 20,2 C 10,4 km/h (2 Bft)
25/07/2007 05:00 19,5 C 64 % 1009,4 hPa 0,0 l/m 4,1 km/h (1 Bft) O-NO 0,00 h 0,051 mm 0 W/m 12,6 C 19,5 C 6,0 km/h (2 Bft)
25/07/2007 06:00 18,8 C 65 % 1009,9 hPa 0,0 l/m 1,4 km/h (1 Bft) O 0,02 h 0,025 mm 14 W/m 12,0 C 18,8 C 2,9 km/h (1 Bft)
25/07/2007 07:00 20,0 C 58 % 1010,2 hPa 0,0 l/m 2,1 km/h (1 Bft) O-NO 0,27 h 0,025 mm 77 W/m 11,5 C 20,0 C 4,1 km/h (1 Bft)
25/07/2007 08:00 23,8 C 47 % 1010,2 hPa 0,0 l/m 2,0 km/h (1 Bft) E 1,00 h 0,076 mm 305 W/m 11,9 C 23,8 C 3,6 km/h (1 Bft)
25/07/2007 09:00 25,6 C 43 % 1010,9 hPa 0,0 l/m 6,0 km/h (2 Bft) E 1,00 h 0,203 mm 473 W/m 12,0 C 25,6 C 9,6 km/h (2 Bft)
25/07/2007 10:00 25,9 C 57 % 1011,5 hPa 0,0 l/m 8,9 km/h (2 Bft) E 1,00 h 0,356 mm 619 W/m 16,6 C 25,9 C 14,3 km/h (3 Bft)
25/07/2007 11:00 26,5 C 57 % 1012,0 hPa 0,0 l/m 10,5 km/h (2 Bft) E 1,00 h 0,457 mm 739 W/m 17,1 C 26,5 C 17,0 km/h (3 Bft)
25/07/2007 12:00 26,4 C 60 % 1012,5 hPa 0,0 l/m 9,6 km/h (2 Bft) E 1,00 h 0,559 mm 818 W/m 18,0 C 26,4 C 15,7 km/h (3 Bft)
25/07/2007 13:00 26,6 C 61 % 1012,4 hPa 0,0 l/m 9,8 km/h (2 Bft) E 1,00 h 0,584 mm 847 W/m 18,3 C 26,6 C 15,9 km/h (3 Bft)
25/07/2007 14:00 27,6 C 53 % 1012,4 hPa 0,0 l/m 8,3 km/h (2 Bft) E 1,00 h 0,610 mm 831 W/m 17,3 C 27,6 C 13,2 km/h (3 Bft)
25/07/2007 15:00 28,8 C 44 % 1012,2 hPa 0,0 l/m 6,8 km/h (2 Bft) E 1,00 h 0,610 mm 763 W/m 15,4 C 28,8 C 11,1 km/h (2 Bft)
25/07/2007 16:00 29,2 C 39 % 1011,9 hPa 0,0 l/m 11,1 km/h (2 Bft) E-NE 1,00 h 0,584 mm 651 W/m 13,8 C 29,2 C 16,3 km/h (3 Bft)
25/07/2007 17:00 28,4 C 42 % 1011,9 hPa 0,0 l/m 5,4 km/h (1 Bft) E 1,00 h 0,559 mm 505 W/m 14,1 C 28,4 C 9,3 km/h (2 Bft)
25/07/2007 18:00 26,9 C 46 % 1011,8 hPa 0,0 l/m 4,0 km/h (1 Bft) E-SE 1,00 h 0,381 mm 338 W/m 14,5 C 26,9 C 6,8 km/h (2 Bft)
25/07/2007 19:00 25,8 C 52 % 1011,6 hPa 0,0 l/m 2,2 km/h (1 Bft) E-SE 0,98 h 0,254 mm 170 W/m 15,1 C 25,8 C 4,3 km/h (1 Bft)
25/07/2007 20:00 23,8 C 59 % 1011,3 hPa 0,0 l/m 0,2 km/h (0 Bft) E-SE 0,23 h 0,127 mm 32 W/m 15,3 C 23,8 C 0,9 km/h (0 Bft)
25/07/2007 21:00 22,4 C 64 % 1011,5 hPa 0,0 l/m 0,2 km/h (0 Bft) E-SE 0,00 h 0,025 mm 6 W/m 15,3 C 22,4 C 0,6 km/h (0 Bft)
25/07/2007 22:00 21,7 C 67 % 1012,0 hPa 0,0 l/m 0,1 km/h (0 Bft) E-SE 0,00 h 0,000 mm 0 W/m 15,2 C 21,7 C 0,3 km/h (0 Bft)
25/07/2007 23:00 21,1 C 70 % 1012,1 hPa 0,0 l/m 0,0 km/h (0 Bft) E-SE 0,00 h 0,025 mm 0 W/m 15,3 C 21,1 C 0,1 km/h (0 Bft)
26/07/2007 00:00 20,8 C 68 % 1011,9 hPa 0,0 l/m 0,9 km/h (0 Bft) E-SE 0,00 h 0,025 mm 0 W/m 14,7 C 20,8 C 1,7 km/h (1 Bft)
26/07/2007 01:00 21,1 C 62 % 1011,9 hPa 0,0 l/m 0,6 km/h (0 Bft) N-NO 0,00 h 0,025 mm 0 W/m 13,4 C 21,1 C 1,6 km/h (1 Bft)
26/07/2007 02:00 20,8 C 59 % 1011,9 hPa 0,0 l/m 0,8 km/h (0 Bft) N-NO 0,00 h 0,051 mm 0 W/m 12,6 C 20,8 C 1,5 km/h (1 Bft)
26/07/2007 03:00 19,8 C 63 % 1012,1 hPa 0,0 l/m 0,1 km/h (0 Bft) N-NE 0,00 h 0,051 mm 0 W/m 12,5 C 19,8 C 0,7 km/h (0 Bft)
26/07/2007 04:00 19,6 C 74 % 1011,9 hPa 0,0 l/m 0,1 km/h (0 Bft) N-NE 0,00 h 0,051 mm 0 W/m 14,7 C 19,6 C 0,4 km/h (0 Bft)
26/07/2007 05:00 19,0 C 79 % 1011,9 hPa 0,0 l/m 1,1 km/h (1 Bft) NO 0,00 h 0,025 mm 0 W/m 15,3 C 19,0 C 1,4 km/h (1 Bft)
26/07/2007 06:00 19,3 C 80 % 1012,3 hPa 0,0 l/m 0,0 km/h (0 Bft) N 0,03 h 0,000 mm 16 W/m 15,6 C 19,3 C 0,1 km/h (0 Bft)
26/07/2007 07:00 20,0 C 75 % 1012,7 hPa 0,0 l/m 1,2 km/h (1 Bft) NO 0,28 h 0,025 mm 82 W/m 15,5 C 20,0 C 2,5 km/h (1 Bft)
26/07/2007 08:00 23,1 C 57 % 1012,9 hPa 0,0 l/m 1,7 km/h (1 Bft) SO 1,00 h 0,051 mm 294 W/m 14,2 C 23,1 C 3,4 km/h (1 Bft)
26/07/2007 09:00 26,3 C 48 % 1013,0 hPa 0,0 l/m 2,9 km/h (1 Bft) E-SE 1,00 h 0,203 mm 462 W/m 14,3 C 26,3 C 5,1 km/h (1 Bft)
26/07/2007 10:00 28,6 C 41 % 1013,2 hPa 0,0 l/m 4,6 km/h (1 Bft) E 1,00 h 0,330 mm 617 W/m 13,8 C 28,6 C 7,8 km/h (2 Bft)
26/07/2007 11:00 28,8 C 42 % 1013,4 hPa 0,0 l/m 9,9 km/h (2 Bft) E 1,00 h 0,457 mm 737 W/m 14,6 C 28,8 C 14,0 km/h (3 Bft)
26/07/2007 12:00 28,9 C 44 % 1013,6 hPa 0,0 l/m 9,8 km/h (2 Bft) E 1,00 h 0,584 mm 820 W/m 15,5 C 28,9 C 14,4 km/h (3 Bft)
26/07/2007 13:00 30,0 C 45 % 1013,4 hPa 0,0 l/m 10,5 km/h (2 Bft) E 1,00 h 0,635 mm 852 W/m 16,6 C 30,0 C 15,0 km/h (3 Bft)
26/07/2007 14:00 29,6 C 49 % 1013,3 hPa 0,0 l/m 11,3 km/h (2 Bft) E 1,00 h 0,686 mm 829 W/m 17,6 C 29,6 C 16,2 km/h (3 Bft)
26/07/2007 15:00 29,6 C 49 % 1013,1 hPa 0,0 l/m 9,3 km/h (2 Bft) E 1,00 h 0,660 mm 757 W/m 17,9 C 29,6 C 14,3 km/h (3 Bft)
26/07/2007 16:00 29,6 C 50 % 1012,9 hPa 0,0 l/m 6,9 km/h (2 Bft) E 1,00 h 0,584 mm 642 W/m 18,0 C 29,6 C 10,8 km/h (2 Bft)
26/07/2007 17:00 29,5 C 45 % 1012,9 hPa 0,0 l/m 5,3 km/h (1 Bft) E 1,00 h 0,483 mm 496 W/m 16,1 C 29,5 C 9,2 km/h (2 Bft)
26/07/2007 18:00 29,0 C 40 % 1012,5 hPa 0,0 l/m 4,9 km/h (1 Bft) E-SE 1,00 h 0,381 mm 333 W/m 14,1 C 29,0 C 8,7 km/h (2 Bft)
26/07/2007 19:00 27,9 C 44 % 1012,4 hPa 0,0 l/m 2,3 km/h (1 Bft) SE 1,00 h 0,279 mm 167 W/m 14,4 C 27,9 C 4,8 km/h (1 Bft)
26/07/2007 20:00 25,0 C 60 % 1012,4 hPa 0,0 l/m 0,4 km/h (0 Bft) E-NE 0,05 h 0,152 mm 25 W/m 16,7 C 25,0 C 1,1 km/h (0 Bft)
26/07/2007 21:00 22,8 C 68 % 1012,3 hPa 0,0 l/m 0,0 km/h (0 Bft) N 0,00 h 0,025 mm 5 W/m 16,6 C 22,8 C 0,1 km/h (0 Bft)
26/07/2007 22:00 21,9 C 71 % 1012,5 hPa 0,0 l/m 0,0 km/h (0 Bft) N 0,00 h 0,000 mm 0 W/m 16,4 C 21,9 C 0,1 km/h (0 Bft)
26/07/2007 23:00 21,6 C 67 % 1012,8 hPa 0,0 l/m 0,1 km/h (0 Bft) E-NE 0,00 h 0,025 mm 0 W/m 15,3 C 21,6 C 0,5 km/h (0 Bft)
27/07/2007 00:00 21,6 C 61 % 1012,8 hPa 0,0 l/m 2,2 km/h (1 Bft) O-NO 0,00 h 0,025 mm 0 W/m 13,8 C 21,6 C 3,6 km/h (1 Bft)
27/07/2007 01:00 22,0 C 58 % 1012,6 hPa 0,0 l/m 2,4 km/h (1 Bft) O-NO 0,00 h 0,051 mm 0 W/m 13,4 C 22,0 C 3,7 km/h (1 Bft)
27/07/2007 02:00 21,6 C 58 % 1012,3 hPa 0,0 l/m 2,2 km/h (1 Bft) O 0,00 h 0,051 mm 0 W/m 13,1 C 21,6 C 2,9 km/h (1 Bft)
27/07/2007 03:00 21,7 C 56 % 1011,9 hPa 0,0 l/m 2,2 km/h (1 Bft) O 0,00 h 0,051 mm 0 W/m 12,6 C 21,7 C 3,4 km/h (1 Bft)
27/07/2007 04:00 20,7 C 59 % 1011,8 hPa 0,0 l/m 0,6 km/h (0 Bft) NO 0,00 h 0,051 mm 0 W/m 12,3 C 20,7 C 1,1 km/h (0 Bft)
27/07/2007 05:00 20,0 C 62 % 1012,0 hPa 0,0 l/m 2,1 km/h (1 Bft) O-NO 0,00 h 0,051 mm 0 W/m 12,4 C 20,0 C 3,3 km/h (1 Bft)
27/07/2007 06:00 19,7 C 65 % 1012,3 hPa 0,0 l/m 0,4 km/h (0 Bft) O-NO 0,03 h 0,025 mm 15 W/m 12,9 C 19,7 C 0,6 km/h (0 Bft)
27/07/2007 07:00 20,4 C 64 % 1012,7 hPa 0,0 l/m 0,1 km/h (0 Bft) O-NO 0,32 h 0,025 mm 82 W/m 13,5 C 20,4 C 0,4 km/h (0 Bft)
27/07/2007 08:00 23,3 C 53 % 1013,0 hPa 0,0 l/m 1,7 km/h (1 Bft) S 1,00 h 0,051 mm 293 W/m 13,2 C 23,3 C 3,1 km/h (1 Bft)
27/07/2007 09:00 25,5 C 49 % 1013,4 hPa 0,0 l/m 4,4 km/h (1 Bft) E 1,00 h 0,203 mm 461 W/m 14,1 C 25,5 C 7,1 km/h (2 Bft)
27/07/2007 10:00 26,1 C 64 % 1013,8 hPa 0,0 l/m 7,8 km/h (2 Bft) E-SE 1,00 h 0,330 mm 603 W/m 18,7 C 26,1 C 13,3 km/h (3 Bft)
27/07/2007 11:00 26,5 C 64 % 1014,0 hPa 0,0 l/m 9,5 km/h (2 Bft) E 1,00 h 0,432 mm 724 W/m 19,2 C 26,5 C 15,0 km/h (3 Bft)
27/07/2007 12:00 27,0 C 65 % 1014,0 hPa 0,0 l/m 9,4 km/h (2 Bft) E 1,00 h 0,533 mm 800 W/m 19,7 C 27,0 C 15,7 km/h (3 Bft)
27/07/2007 13:00 26,9 C 66 % 1014,1 hPa 0,0 l/m 12,3 km/h (3 Bft) E 1,00 h 0,559 mm 828 W/m 19,9 C 26,9 C 19,2 km/h (3 Bft)
27/07/2007 14:00 27,1 C 60 % 1014,3 hPa 0,0 l/m 11,3 km/h (2 Bft) E 1,00 h 0,610 mm 810 W/m 18,6 C 27,1 C 17,6 km/h (3 Bft)
27/07/2007 15:00 28,3 C 51 % 1014,1 hPa 0,0 l/m 10,0 km/h (2 Bft) E 1,00 h 0,610 mm 741 W/m 17,3 C 28,3 C 15,9 km/h (3 Bft)
27/07/2007 16:00 28,6 C 47 % 1013,7 hPa 0,0 l/m 8,4 km/h (2 Bft) E 1,00 h 0,559 mm 632 W/m 16,3 C 28,6 C 13,7 km/h (3 Bft)
27/07/2007 17:00 28,0 C 50 % 1013,4 hPa 0,0 l/m 10,0 km/h (2 Bft) E-NE 1,00 h 0,508 mm 484 W/m 16,5 C 28,0 C 14,7 km/h (3 Bft)
27/07/2007 18:00 27,1 C 47 % 1013,3 hPa 0,0 l/m 7,4 km/h (2 Bft) E-NE 1,00 h 0,406 mm 320 W/m 14,9 C 27,1 C 10,9 km/h (2 Bft)
27/07/2007 19:00 26,1 C 50 % 1012,9 hPa 0,0 l/m 3,1 km/h (1 Bft) E-NE 0,97 h 0,279 mm 160 W/m 14,9 C 26,1 C 5,4 km/h (1 Bft)
27/07/2007 20:00 23,9 C 60 % 1012,9 hPa 0,0 l/m 0,6 km/h (0 Bft) E-SE 0,02 h 0,127 mm 24 W/m 15,6 C 23,9 C 2,2 km/h (1 Bft)
27/07/2007 21:00 22,2 C 72 % 1013,0 hPa 0,0 l/m 1,6 km/h (1 Bft) E 0,00 h 0,025 mm 5 W/m 16,8 C 22,2 C 3,0 km/h (1 Bft)
27/07/2007 22:00 21,5 C 84 % 1013,3 hPa 0,0 l/m 0,2 km/h (0 Bft) E 0,00 h 0,025 mm 0 W/m 18,8 C 21,5 C 1,3 km/h (1 Bft)
27/07/2007 23:00 21,1 C 90 % 1013,4 hPa 0,0 l/m 0,0 km/h (0 Bft) N 0,00 h 0,025 mm 0 W/m 19,3 C 21,1 C 0,1 km/h (0 Bft)
28/07/2007 00:00 20,5 C 90 % 1013,4 hPa 0,0 l/m 0,0 km/h (0 Bft) N 0,00 h 0,025 mm 0 W/m 18,8 C 20,5 C 0,1 km/h (0 Bft)
28/07/2007 01:00 20,0 C 90 % 1013,5 hPa 0,0 l/m 0,3 km/h (0 Bft) E 0,00 h 0,025 mm 0 W/m 18,4 C 20,0 C 0,5 km/h (0 Bft)
28/07/2007 02:00 19,8 C 91 % 1013,2 hPa 0,0 l/m 1,2 km/h (1 Bft) E-NE 0,00 h 0,025 mm 0 W/m 18,3 C 19,8 C 2,6 km/h (1 Bft)
28/07/2007 03:00 19,9 C 91 % 1012,9 hPa 0,0 l/m 0,9 km/h (0 Bft) NO 0,00 h 0,025 mm 0 W/m 18,4 C 19,9 C 2,3 km/h (1 Bft)
28/07/2007 04:00 19,3 C 91 % 1012,7 hPa 0,0 l/m 3,9 km/h (1 Bft) NO 0,00 h 0,025 mm 0 W/m 17,9 C 19,3 C 6,5 km/h (2 Bft)
28/07/2007 05:00 19,3 C 92 % 1012,8 hPa 0,0 l/m 3,4 km/h (1 Bft) O-NO 0,00 h 0,025 mm 0 W/m 17,9 C 19,3 C 5,9 km/h (2 Bft)
28/07/2007 06:00 19,2 C 92 % 1012,8 hPa 0,0 l/m 4,2 km/h (1 Bft) NO 0,03 h 0,000 mm 19 W/m 17,9 C 19,2 C 7,1 km/h (2 Bft)
28/07/2007 07:00 19,8 C 90 % 1012,9 hPa 0,0 l/m 0,7 km/h (0 Bft) NO 0,33 h 0,025 mm 111 W/m 18,2 C 19,8 C 2,4 km/h (1 Bft)
28/07/2007 08:00 22,3 C 81 % 1013,1 hPa 0,0 l/m 0,6 km/h (0 Bft) O 0,75 h 0,076 mm 266 W/m 18,8 C 22,3 C 2,0 km/h (1 Bft)
28/07/2007 09:00 24,3 C 72 % 1013,3 hPa 0,0 l/m 3,0 km/h (1 Bft) S-SO 0,87 h 0,152 mm 450 W/m 18,9 C 24,3 C 5,5 km/h (1 Bft)
28/07/2007 10:00 25,8 C 69 % 1013,4 hPa 0,0 l/m 7,8 km/h (2 Bft) E 1,00 h 0,305 mm 615 W/m 19,8 C 25,8 C 12,4 km/h (3 Bft)
28/07/2007 11:00 26,1 C 69 % 1013,5 hPa 0,0 l/m 9,7 km/h (2 Bft) E 1,00 h 0,432 mm 729 W/m 20,0 C 26,1 C 14,8 km/h (3 Bft)
28/07/2007 12:00 26,5 C 69 % 1013,4 hPa 0,0 l/m 10,3 km/h (2 Bft) E 1,00 h 0,508 mm 818 W/m 20,3 C 26,5 C 15,4 km/h (3 Bft)
28/07/2007 13:00 26,8 C 68 % 1013,1 hPa 0,0 l/m 9,5 km/h (2 Bft) E 1,00 h 0,559 mm 870 W/m 20,3 C 26,8 C 14,6 km/h (3 Bft)
28/07/2007 14:00 27,2 C 65 % 1012,9 hPa 0,0 l/m 8,4 km/h (2 Bft) E 1,00 h 0,610 mm 805 W/m 19,9 C 27,2 C 14,0 km/h (3 Bft)
28/07/2007 15:00 27,7 C 60 % 1012,8 hPa 0,0 l/m 8,4 km/h (2 Bft) E 1,00 h 0,559 mm 733 W/m 19,4 C 27,7 C 13,7 km/h (3 Bft)
28/07/2007 16:00 28,1 C 59 % 1012,4 hPa 0,0 l/m 7,3 km/h (2 Bft) E 1,00 h 0,533 mm 626 W/m 19,2 C 28,1 C 11,6 km/h (2 Bft)
28/07/2007 17:00 27,9 C 56 % 1011,9 hPa 0,0 l/m 4,0 km/h (1 Bft) E-SE 1,00 h 0,457 mm 488 W/m 18,2 C 27,9 C 7,6 km/h (2 Bft)
28/07/2007 18:00 27,3 C 59 % 1011,5 hPa 0,0 l/m 3,3 km/h (1 Bft) E-SE 1,00 h 0,356 mm 322 W/m 18,7 C 27,3 C 6,0 km/h (2 Bft)
28/07/2007 19:00 26,1 C 67 % 1011,3 hPa 0,0 l/m 1,0 km/h (0 Bft) E-SE 1,00 h 0,229 mm 160 W/m 19,3 C 26,1 C 2,5 km/h (1 Bft)
28/07/2007 20:00 24,3 C 74 % 1011,1 hPa 0,0 l/m 0,4 km/h (0 Bft) E-SE 0,08 h 0,127 mm 24 W/m 19,3 C 24,3 C 1,5 km/h (1 Bft)
28/07/2007 21:00 22,8 C 79 % 1011,1 hPa 0,0 l/m 0,1 km/h (0 Bft) E-SE 0,00 h 0,025 mm 5 W/m 18,9 C 22,8 C 0,2 km/h (0 Bft)
28/07/2007 22:00 22,1 C 81 % 1011,1 hPa 0,0 l/m 0,0 km/h (0 Bft) E-SE 0,00 h 0,000 mm 0 W/m 18,7 C 22,1 C 0,1 km/h (0 Bft)
28/07/2007 23:00 21,5 C 80 % 1011,2 hPa 0,0 l/m 1,4 km/h (1 Bft) N 0,00 h 0,025 mm 0 W/m 17,8 C 21,5 C 2,4 km/h (1 Bft)
29/07/2007 00:00 21,6 C 78 % 1011,2 hPa 0,0 l/m 0,3 km/h (0 Bft) N 0,00 h 0,025 mm 0 W/m 17,6 C 21,6 C 0,8 km/h (0 Bft)
29/07/2007 01:00 21,4 C 78 % 1011,2 hPa 0,0 l/m 0,1 km/h (0 Bft) N 0,00 h 0,025 mm 0 W/m 17,3 C 21,4 C 0,3 km/h (0 Bft)
29/07/2007 02:00 21,0 C 81 % 1011,1 hPa 0,0 l/m 0,2 km/h (0 Bft) N 0,00 h 0,025 mm 0 W/m 17,6 C 21,0 C 0,7 km/h (0 Bft)
29/07/2007 03:00 20,6 C 81 % 1010,9 hPa 0,0 l/m 2,2 km/h (1 Bft) O-NO 0,00 h 0,025 mm 0 W/m 17,2 C 20,6 C 4,2 km/h (1 Bft)
29/07/2007 04:00 20,6 C 77 % 1010,6 hPa 0,0 l/m 2,9 km/h (1 Bft) O-NO 0,00 h 0,025 mm 0 W/m 16,5 C 20,6 C 5,0 km/h (1 Bft)
29/07/2007 05:00 20,7 C 76 % 1010,6 hPa 0,0 l/m 4,5 km/h (1 Bft) O-NO 0,00 h 0,025 mm 0 W/m 16,3 C 20,7 C 6,7 km/h (2 Bft)
29/07/2007 06:00 21,1 C 76 % 1010,6 hPa 0,0 l/m 5,9 km/h (2 Bft) O 0,02 h 0,025 mm 15 W/m 16,7 C 21,1 C 8,3 km/h (2 Bft)
29/07/2007 07:00 22,1 C 72 % 1010,8 hPa 0,0 l/m 3,8 km/h (1 Bft) O 0,33 h 0,025 mm 81 W/m 16,9 C 22,1 C 5,8 km/h (2 Bft)
29/07/2007 08:00 25,4 C 61 % 1010,8 hPa 0,0 l/m 1,8 km/h (1 Bft) O-NO 1,00 h 0,076 mm 281 W/m 17,3 C 25,4 C 3,7 km/h (1 Bft)
29/07/2007 09:00 28,0 C 51 % 1010,7 hPa 0,0 l/m 3,4 km/h (1 Bft) O-SO 1,00 h 0,203 mm 447 W/m 16,9 C 28,0 C 6,1 km/h (2 Bft)
29/07/2007 10:00 29,7 C 51 % 1010,6 hPa 0,0 l/m 6,6 km/h (2 Bft) E 1,00 h 0,330 mm 594 W/m 18,3 C 29,7 C 10,6 km/h (2 Bft)
29/07/2007 11:00 29,9 C 50 % 1010,6 hPa 0,0 l/m 10,5 km/h (2 Bft) E 1,00 h 0,457 mm 716 W/m 18,4 C 29,9 C 15,2 km/h (3 Bft)
29/07/2007 12:00 29,2 C 55 % 1010,4 hPa 0,0 l/m 10,1 km/h (2 Bft) E 1,00 h 0,584 mm 799 W/m 19,2 C 29,2 C 15,0 km/h (3 Bft)
29/07/2007 13:00 29,5 C 57 % 1010,2 hPa 0,0 l/m 10,0 km/h (2 Bft) E 1,00 h 0,610 mm 831 W/m 20,2 C 29,5 C 14,7 km/h (3 Bft)
29/07/2007 14:00 29,4 C 61 % 1009,9 hPa 0,0 l/m 9,8 km/h (2 Bft) E 1,00 h 0,635 mm 809 W/m 21,0 C 29,4 C 14,7 km/h (3 Bft)
29/07/2007 15:00 28,9 C 62 % 1009,6 hPa 0,0 l/m 8,1 km/h (2 Bft) E 1,00 h 0,610 mm 734 W/m 20,9 C 28,9 C 12,3 km/h (3 Bft)
29/07/2007 16:00 29,1 C 60 % 1009,3 hPa 0,0 l/m 4,7 km/h (1 Bft) E-SE 1,00 h 0,533 mm 627 W/m 20,4 C 29,1 C 7,8 km/h (2 Bft)
29/07/2007 17:00 29,9 C 54 % 1008,9 hPa 0,0 l/m 5,8 km/h (2 Bft) E-SE 1,00 h 0,457 mm 485 W/m 19,6 C 29,9 C 8,6 km/h (2 Bft)
29/07/2007 18:00 29,6 C 47 % 1008,3 hPa 0,0 l/m 3,5 km/h (1 Bft) E-SE 1,00 h 0,381 mm 328 W/m 17,1 C 29,6 C 5,4 km/h (1 Bft)
29/07/2007 19:00 29,6 C 43 % 1007,9 hPa 0,0 l/m 1,7 km/h (1 Bft) E-SE 1,00 h 0,254 mm 167 W/m 15,6 C 29,6 C 3,4 km/h (1 Bft)
29/07/2007 20:00 27,7 C 48 % 1007,4 hPa 0,0 l/m 0,2 km/h (0 Bft) S-SE 0,12 h 0,152 mm 23 W/m 15,6 C 27,7 C 0,6 km/h (0 Bft)
29/07/2007 21:00 25,7 C 55 % 1007,3 hPa 0,0 l/m 0,3 km/h (0 Bft) S 0,00 h 0,025 mm 0 W/m 15,9 C 25,7 C 1,1 km/h (0 Bft)
29/07/2007 22:00 25,1 C 48 % 1007,2 hPa 0,0 l/m 4,5 km/h (1 Bft) O-NO 0,00 h 0,025 mm 0 W/m 13,3 C 25,1 C 6,3 km/h (2 Bft)
29/07/2007 23:00 23,9 C 50 % 1006,9 hPa 0,0 l/m 3,6 km/h (1 Bft) N-NO 0,00 h 0,076 mm 0 W/m 12,7 C 23,9 C 5,8 km/h (2 Bft)
Min-Date _ 25/07/07 24/07/07 24/07/07 - 23/07/07 - - - - 24/07/07 25/07/07 23/07/07
_ Min-Heure 06:34 15:41 18:30 - 00:01 - - - - 13:22 06:34 00:01
Minimum _ 18,3 C 18 % 1002,9 hPa - 0,0 km/h (0 Bft) - - - - 5,0 C 18,3 C 0,0 km/h (0 Bft)
Max-Date _ 24/07/07 28/07/07 27/07/07 23/07/07 24/07/07 - 23/07/07 24/07/07 23/07/07 29/07/07 24/07/07 24/07/07
_ Max-Heure 17:31 05:45 14:00 00:00 16:46 - 06:22 14:00 12:39 14:45 17:31 16:46
Maximum _ 33,2 C 93 % 1014,4 hPa 0,0 l/m 51,5 km/h
O-SO (7 Bft)
- 0,02 h 1,016 mm 988 W/m 21,6 C 33,2 C 61,2 km/h
SO (7 Bft)
Moyenne _ 24,5 C 61 % 1010,1 hPa #0,0 l/m 5,9 km/h (2 Bft) E #81:59 h #42,403 mm 447 W/m 15,7 C 24,5 C 9,0 km/h (2 Bft)
Roquefort les pins